Bee Cave, Texas
Current Conditions -  °F | °C
As of 2:55 PM on Tuesday 21 Oct 2014 (Local Time) from KRYW Reporting Station
Clear Clear  
Wind Chill: 80°   Ceiling: Unl
Heat Index: 80°   Visibility: 10mi
Dew Point: 51°   Wind: 9mph
Humidity: 37%   Direction: 80°E
Pressure: 30.03"   Gusts: 18mph
Location:  30.3763°N, 97.9464°W
Report Text: KRYW 211955Z AUTO 08008G16KT 10SM CLR 27/11 A3003 RMK AO2 T02650108
Loading
Personal Weather Stations






























Interactive Weather Map
Tropical Storm Tracking
New forecast layout! Learn more

10-Day Weather Forecast

Advertisements
Track Severe Weather on mobile